sensor_id;sensor_type;location;lat;lon;timestamp;pressure;altitude;pressure_sealevel;temperature;humidity
58668;BME280;59852;43.086;25.634;2023-08-31T00:00:25;98179.84;;;21.46;88.63
58668;BME280;59852;43.086;25.634;2023-08-31T00:02:51;98190.41;;;21.18;89.77
58668;BME280;59852;43.086;25.634;2023-08-31T00:05:17;98179.91;;;21.31;89.21
58668;BME280;59852;43.086;25.634;2023-08-31T00:07:42;98179.88;;;21.10;90.13
58668;BME280;59852;43.086;25.634;2023-08-31T00:10:07;98174.50;;;21.25;89.29
58668;BME280;59852;43.086;25.634;2023-08-31T00:12:36;98170.00;;;21.04;90.02
58668;BME280;59852;43.086;25.634;2023-08-31T00:15:02;98172.09;;;21.08;90.23
58668;BME280;59852;43.086;25.634;2023-08-31T00:17:29;98165.78;;;21.09;89.94
58668;BME280;59852;43.086;25.634;2023-08-31T00:19:55;98178.00;;;21.25;89.96
58668;BME280;59852;43.086;25.634;2023-08-31T00:22:20;98181.03;;;21.22;89.58
58668;BME280;59852;43.086;25.634;2023-08-31T00:24:46;98174.47;;;20.82;93.00
58668;BME280;59852;43.086;25.634;2023-08-31T00:27:11;98171.16;;;21.37;89.20
58668;BME280;59852;43.086;25.634;2023-08-31T00:29:39;98179.13;;;21.16;90.07
58668;BME280;59852;43.086;25.634;2023-08-31T00:32:04;98185.28;;;20.95;91.34
58668;BME280;59852;43.086;25.634;2023-08-31T00:34:30;98188.75;;;20.96;91.83
58668;BME280;59852;43.086;25.634;2023-08-31T00:36:56;98190.13;;;21.13;90.38
58668;BME280;59852;43.086;25.634;2023-08-31T00:39:21;98191.84;;;21.20;89.55
58668;BME280;59852;43.086;25.634;2023-08-31T00:41:47;98190.53;;;21.31;89.59
58668;BME280;59852;43.086;25.634;2023-08-31T00:44:12;98195.63;;;21.26;89.11
58668;BME280;59852;43.086;25.634;2023-08-31T00:46:37;98181.63;;;21.39;89.55
58668;BME280;59852;43.086;25.634;2023-08-31T00:49:03;98181.41;;;20.76;93.04
58668;BME280;59852;43.086;25.634;2023-08-31T00:51:30;98180.94;;;20.94;92.75
58668;BME280;59852;43.086;25.634;2023-08-31T00:53:56;98185.63;;;21.13;91.60
58668;BME280;59852;43.086;25.634;2023-08-31T00:56:24;98184.78;;;21.06;90.94
58668;BME280;59852;43.086;25.634;2023-08-31T00:58:49;98188.03;;;20.66;93.90
58668;BME280;59852;43.086;25.634;2023-08-31T01:04:05;98191.94;;;20.70;94.14
58668;BME280;59852;43.086;25.634;2023-08-31T01:06:38;98201.69;;;20.84;92.20
58668;BME280;59852;43.086;25.634;2023-08-31T01:14:23;98196.66;;;21.10;90.83
58668;BME280;59852;43.086;25.634;2023-08-31T01:16:50;98201.22;;;20.95;92.10
58668;BME280;59852;43.086;25.634;2023-08-31T01:19:21;98203.28;;;21.36;89.09
58668;BME280;59852;43.086;25.634;2023-08-31T01:21:50;98212.53;;;21.40;88.63
58668;BME280;59852;43.086;25.634;2023-08-31T01:24:16;98209.41;;;21.15;90.00
58668;BME280;59852;43.086;25.634;2023-08-31T01:26:42;98205.47;;;21.11;90.09
58668;BME280;59852;43.086;25.634;2023-08-31T01:29:07;98198.13;;;21.13;89.74
58668;BME280;59852;43.086;25.634;2023-08-31T01:31:33;98194.06;;;20.96;90.95
58668;BME280;59852;43.086;25.634;2023-08-31T01:34:06;98189.81;;;20.80;90.23
58668;BME280;59852;43.086;25.634;2023-08-31T01:36:32;98193.09;;;20.82;90.68
58668;BME280;59852;43.086;25.634;2023-08-31T01:41:26;98194.69;;;20.76;90.49
58668;BME280;59852;43.086;25.634;2023-08-31T01:43:53;98197.25;;;20.55;91.49
58668;BME280;59852;43.086;25.634;2023-08-31T01:46:18;98189.00;;;20.65;91.54
58668;BME280;59852;43.086;25.634;2023-08-31T01:48:44;98194.00;;;20.89;90.56
58668;BME280;59852;43.086;25.634;2023-08-31T01:51:10;98198.06;;;20.70;90.31
58668;BME280;59852;43.086;25.634;2023-08-31T01:53:35;98195.13;;;20.80;90.28
58668;BME280;59852;43.086;25.634;2023-08-31T01:56:01;98204.69;;;20.59;90.97
58668;BME280;59852;43.086;25.634;2023-08-31T01:58:26;98204.97;;;20.50;91.93
58668;BME280;59852;43.086;25.634;2023-08-31T02:00:52;98204.53;;;20.46;91.89
58668;BME280;59852;43.086;25.634;2023-08-31T02:03:17;98204.41;;;20.69;90.67
58668;BME280;59852;43.086;25.634;2023-08-31T02:05:42;98201.13;;;20.67;90.01
58668;BME280;59852;43.086;25.634;2023-08-31T02:08:08;98198.41;;;20.46;91.49
58668;BME280;59852;43.086;25.634;2023-08-31T02:10:33;98206.91;;;20.56;91.17
58668;BME280;59852;43.086;25.634;2023-08-31T02:12:59;98208.38;;;20.58;91.24
58668;BME280;59852;43.086;25.634;2023-08-31T02:15:24;98208.03;;;20.83;89.40
58668;BME280;59852;43.086;25.634;2023-08-31T02:17:49;98205.13;;;20.63;89.88
58668;BME280;59852;43.086;25.634;2023-08-31T02:20:15;98206.38;;;20.46;90.88
58668;BME280;59852;43.086;25.634;2023-08-31T02:22:40;98212.66;;;20.45;91.35
58668;BME280;59852;43.086;25.634;2023-08-31T02:25:05;98211.84;;;20.44;91.21
58668;BME280;59852;43.086;25.634;2023-08-31T02:27:31;98206.25;;;20.39;91.24
58668;BME280;59852;43.086;25.634;2023-08-31T02:29:56;98203.50;;;20.32;91.57
58668;BME280;59852;43.086;25.634;2023-08-31T02:32:21;98211.13;;;20.36;91.75
58668;BME280;59852;43.086;25.634;2023-08-31T02:34:47;98206.19;;;20.18;92.38
58668;BME280;59852;43.086;25.634;2023-08-31T02:37:12;98202.31;;;20.20;92.85
58668;BME280;59852;43.086;25.634;2023-08-31T02:39:37;98205.44;;;20.24;93.03
58668;BME280;59852;43.086;25.634;2023-08-31T02:42:03;98207.19;;;20.46;91.60
58668;BME280;59852;43.086;25.634;2023-08-31T02:44:30;98211.13;;;20.65;90.17
58668;BME280;59852;43.086;25.634;2023-08-31T02:46:55;98214.75;;;20.64;89.52
58668;BME280;59852;43.086;25.634;2023-08-31T02:49:21;98216.06;;;20.53;90.55
58668;BME280;59852;43.086;25.634;2023-08-31T02:51:46;98212.38;;;20.40;90.36
58668;BME280;59852;43.086;25.634;2023-08-31T02:54:11;98214.78;;;20.20;91.86
58668;BME280;59852;43.086;25.634;2023-08-31T02:56:37;98215.31;;;20.15;92.44
58668;BME280;59852;43.086;25.634;2023-08-31T02:59:02;98222.63;;;20.13;92.01
58668;BME280;59852;43.086;25.634;2023-08-31T03:01:28;98223.47;;;20.14;92.71
58668;BME280;59852;43.086;25.634;2023-08-31T03:03:53;98216.50;;;20.13;92.20
58668;BME280;59852;43.086;25.634;2023-08-31T03:06:18;98221.91;;;19.90;93.22
58668;BME280;59852;43.086;25.634;2023-08-31T03:08:44;98230.50;;;19.92;93.19
58668;BME280;59852;43.086;25.634;2023-08-31T03:11:09;98225.94;;;20.00;93.03
58668;BME280;59852;43.086;25.634;2023-08-31T03:13:34;98230.97;;;20.10;92.67
58668;BME280;59852;43.086;25.634;2023-08-31T03:16:00;98234.94;;;20.29;91.16
58668;BME280;59852;43.086;25.634;2023-08-31T03:18:25;98240.41;;;20.42;90.91
58668;BME280;59852;43.086;25.634;2023-08-31T03:20:51;98241.72;;;20.17;90.60
58668;BME280;59852;43.086;25.634;2023-08-31T03:23:16;98242.56;;;19.94;91.67
58668;BME280;59852;43.086;25.634;2023-08-31T03:25:42;98237.25;;;19.94;91.97
58668;BME280;59852;43.086;25.634;2023-08-31T03:28:07;98242.13;;;20.05;91.57
58668;BME280;59852;43.086;25.634;2023-08-31T03:30:33;98243.06;;;19.98;91.64
58668;BME280;59852;43.086;25.634;2023-08-31T03:32:58;98240.38;;;19.83;92.05
58668;BME280;59852;43.086;25.634;2023-08-31T03:35:24;98239.59;;;19.97;92.00
58668;BME280;59852;43.086;25.634;2023-08-31T03:37:55;98234.41;;;19.81;91.82
58668;BME280;59852;43.086;25.634;2023-08-31T03:40:20;98243.09;;;19.75;92.69
58668;BME280;59852;43.086;25.634;2023-08-31T03:42:47;98243.09;;;19.75;92.91
58668;BME280;59852;43.086;25.634;2023-08-31T03:45:13;98242.06;;;19.61;93.41
58668;BME280;59852;43.086;25.634;2023-08-31T03:47:38;98243.47;;;19.72;93.77
58668;BME280;59852;43.086;25.634;2023-08-31T03:50:04;98250.16;;;19.83;92.74
58668;BME280;59852;43.086;25.634;2023-08-31T03:52:29;98249.34;;;19.82;92.48
58668;BME280;59852;43.086;25.634;2023-08-31T03:54:55;98246.50;;;19.84;92.80
58668;BME280;59852;43.086;25.634;2023-08-31T03:57:20;98259.59;;;19.85;92.47
58668;BME280;59852;43.086;25.634;2023-08-31T03:59:46;98260.78;;;19.83;92.21
58668;BME280;59852;43.086;25.634;2023-08-31T04:02:11;98261.31;;;19.78;92.35
58668;BME280;59852;43.086;25.634;2023-08-31T04:04:36;98253.88;;;19.73;92.83
58668;BME280;59852;43.086;25.634;2023-08-31T04:07:02;98264.88;;;19.85;92.83
58668;BME280;59852;43.086;25.634;2023-08-31T04:09:27;98261.00;;;20.11;90.96
58668;BME280;59852;43.086;25.634;2023-08-31T04:11:52;98257.91;;;20.07;90.37
58668;BME280;59852;43.086;25.634;2023-08-31T04:14:18;98258.19;;;19.74;93.01
58668;BME280;59852;43.086;25.634;2023-08-31T04:16:43;98262.41;;;19.84;92.67
58668;BME280;59852;43.086;25.634;2023-08-31T04:19:09;98272.06;;;19.99;91.98
58668;BME280;59852;43.086;25.634;2023-08-31T04:21:34;98273.09;;;20.13;90.54
58668;BME280;59852;43.086;25.634;2023-08-31T04:24:01;98275.41;;;20.31;90.09
58668;BME280;59852;43.086;25.634;2023-08-31T04:26:26;98271.28;;;20.28;89.53
58668;BME280;59852;43.086;25.634;2023-08-31T04:28:52;98279.59;;;20.25;89.02
58668;BME280;59852;43.086;25.634;2023-08-31T04:31:18;98280.72;;;20.31;90.50
58668;BME280;59852;43.086;25.634;2023-08-31T04:33:43;98283.81;;;20.20;89.73
58668;BME280;59852;43.086;25.634;2023-08-31T04:36:08;98278.13;;;20.23;90.45
58668;BME280;59852;43.086;25.634;2023-08-31T04:38:34;98280.44;;;20.26;90.14
58668;BME280;59852;43.086;25.634;2023-08-31T04:40:59;98285.66;;;20.19;90.35
58668;BME280;59852;43.086;25.634;2023-08-31T04:43:25;98281.56;;;19.79;91.13
58668;BME280;59852;43.086;25.634;2023-08-31T04:45:54;98290.81;;;20.36;89.26
58668;BME280;59852;43.086;25.634;2023-08-31T04:48:19;98288.03;;;20.29;88.97
58668;BME280;59852;43.086;25.634;2023-08-31T04:50:45;98285.53;;;20.13;90.36
58668;BME280;59852;43.086;25.634;2023-08-31T04:53:10;98292.25;;;20.38;90.23
58668;BME280;59852;43.086;25.634;2023-08-31T04:55:36;98292.91;;;20.40;89.88
58668;BME280;59852;43.086;25.634;2023-08-31T04:58:02;98301.59;;;20.19;91.47
58668;BME280;59852;43.086;25.634;2023-08-31T05:00:28;98306.06;;;20.19;89.13
58668;BME280;59852;43.086;25.634;2023-08-31T05:02:53;98309.28;;;20.29;89.80
58668;BME280;59852;43.086;25.634;2023-08-31T05:05:18;98305.72;;;20.37;90.26
58668;BME280;59852;43.086;25.634;2023-08-31T05:07:44;98306.50;;;20.75;88.32
58668;BME280;59852;43.086;25.634;2023-08-31T05:10:09;98311.31;;;21.01;87.04
58668;BME280;59852;43.086;25.634;2023-08-31T05:12:35;98315.97;;;21.28;85.13
58668;BME280;59852;43.086;25.634;2023-08-31T05:15:00;98317.63;;;21.14;84.91
58668;BME280;59852;43.086;25.634;2023-08-31T05:17:25;98316.97;;;21.12;84.77
58668;BME280;59852;43.086;25.634;2023-08-31T05:19:51;98324.41;;;21.17;84.38
58668;BME280;59852;43.086;25.634;2023-08-31T05:22:16;98328.41;;;20.77;86.74
58668;BME280;59852;43.086;25.634;2023-08-31T05:24:42;98324.50;;;20.94;85.85
58668;BME280;59852;43.086;25.634;2023-08-31T05:27:08;98338.97;;;21.21;83.93
58668;BME280;59852;43.086;25.634;2023-08-31T05:29:33;98326.94;;;21.61;81.54
58668;BME280;59852;43.086;25.634;2023-08-31T05:31:59;98338.06;;;21.14;83.21
58668;BME280;59852;43.086;25.634;2023-08-31T05:34:24;98337.59;;;21.61;81.28
58668;BME280;59852;43.086;25.634;2023-08-31T05:36:50;98351.66;;;21.76;80.82
58668;BME280;59852;43.086;25.634;2023-08-31T05:39:15;98346.53;;;21.75;80.84
58668;BME280;59852;43.086;25.634;2023-08-31T05:41:43;98352.72;;;21.61;81.67
58668;BME280;59852;43.086;25.634;2023-08-31T05:44:09;98362.94;;;21.79;80.43
58668;BME280;59852;43.086;25.634;2023-08-31T05:46:35;98363.22;;;21.84;79.47
58668;BME280;59852;43.086;25.634;2023-08-31T05:49:00;98364.78;;;21.57;82.82
58668;BME280;59852;43.086;25.634;2023-08-31T05:51:26;98363.44;;;21.89;82.02
58668;BME280;59852;43.086;25.634;2023-08-31T05:53:51;98359.78;;;22.11;80.07
58668;BME280;59852;43.086;25.634;2023-08-31T05:56:18;98370.56;;;22.24;78.34
58668;BME280;59852;43.086;25.634;2023-08-31T05:58:44;98370.16;;;22.06;79.58
58668;BME280;59852;43.086;25.634;2023-08-31T06:01:09;98368.59;;;22.33;79.40
58668;BME280;59852;43.086;25.634;2023-08-31T06:03:35;98365.25;;;22.24;79.98
58668;BME280;59852;43.086;25.634;2023-08-31T06:06:01;98368.06;;;21.59;83.21
58668;BME280;59852;43.086;25.634;2023-08-31T06:08:26;98366.38;;;22.15;81.76
58668;BME280;59852;43.086;25.634;2023-08-31T06:10:52;98361.63;;;22.39;80.37
58668;BME280;59852;43.086;25.634;2023-08-31T06:13:17;98363.97;;;22.48;80.79
58668;BME280;59852;43.086;25.634;2023-08-31T06:15:43;98362.19;;;22.55;79.29
58668;BME280;59852;43.086;25.634;2023-08-31T06:18:09;98367.94;;;22.59;79.75
58668;BME280;59852;43.086;25.634;2023-08-31T06:20:35;98364.16;;;22.19;79.94
58668;BME280;59852;43.086;25.634;2023-08-31T06:23:00;98370.09;;;22.21;82.19
58668;BME280;59852;43.086;25.634;2023-08-31T06:25:25;98372.06;;;22.61;80.92
58668;BME280;59852;43.086;25.634;2023-08-31T06:27:51;98376.53;;;22.54;80.26
58668;BME280;59852;43.086;25.634;2023-08-31T06:30:16;98379.88;;;22.63;79.37
58668;BME280;59852;43.086;25.634;2023-08-31T06:32:43;98389.50;;;22.64;78.79
58668;BME280;59852;43.086;25.634;2023-08-31T06:35:09;98388.44;;;22.86;78.48
58668;BME280;59852;43.086;25.634;2023-08-31T06:37:34;98387.94;;;23.04;78.04
58668;BME280;59852;43.086;25.634;2023-08-31T06:39:59;98396.22;;;23.23;77.05
58668;BME280;59852;43.086;25.634;2023-08-31T06:42:25;98403.63;;;23.27;77.55
58668;BME280;59852;43.086;25.634;2023-08-31T06:44:50;98398.00;;;23.50;76.63
58668;BME280;59852;43.086;25.634;2023-08-31T06:47:16;98395.22;;;23.30;78.60
58668;BME280;59852;43.086;25.634;2023-08-31T06:49:42;98399.19;;;23.47;78.05
58668;BME280;59852;43.086;25.634;2023-08-31T06:52:08;98395.88;;;23.32;77.99
58668;BME280;59852;43.086;25.634;2023-08-31T06:54:33;98404.34;;;23.56;76.01
58668;BME280;59852;43.086;25.634;2023-08-31T06:56:59;98402.41;;;23.71;74.09
58668;BME280;59852;43.086;25.634;2023-08-31T06:59:24;98404.50;;;24.02;74.61
58668;BME280;59852;43.086;25.634;2023-08-31T07:01:50;98409.81;;;23.89;74.14
58668;BME280;59852;43.086;25.634;2023-08-31T07:04:15;98415.66;;;23.58;73.05
58668;BME280;59852;43.086;25.634;2023-08-31T07:06:40;98416.81;;;23.96;72.53
58668;BME280;59852;43.086;25.634;2023-08-31T07:09:06;98418.94;;;24.34;70.53
58668;BME280;59852;43.086;25.634;2023-08-31T07:11:33;98419.16;;;24.33;67.87
58668;BME280;59852;43.086;25.634;2023-08-31T07:13:58;98410.91;;;24.47;69.06
58668;BME280;59852;43.086;25.634;2023-08-31T07:16:24;98409.69;;;24.56;67.66
58668;BME280;59852;43.086;25.634;2023-08-31T07:18:49;98417.91;;;24.88;64.55
58668;BME280;59852;43.086;25.634;2023-08-31T07:21:15;98415.59;;;25.11;61.70
58668;BME280;59852;43.086;25.634;2023-08-31T07:23:40;98417.69;;;24.89;62.17
58668;BME280;59852;43.086;25.634;2023-08-31T07:26:05;98424.66;;;25.04;62.88
58668;BME280;59852;43.086;25.634;2023-08-31T07:28:31;98414.56;;;25.06;63.99
58668;BME280;59852;43.086;25.634;2023-08-31T07:31:03;98419.25;;;25.30;63.29
58668;BME280;59852;43.086;25.634;2023-08-31T07:33:29;98416.28;;;25.45;61.42
58668;BME280;59852;43.086;25.634;2023-08-31T07:35:56;98418.97;;;25.90;59.47
58668;BME280;59852;43.086;25.634;2023-08-31T07:38:21;98415.03;;;25.92;61.78
58668;BME280;59852;43.086;25.634;2023-08-31T07:40:47;98411.19;;;26.13;59.80
58668;BME280;59852;43.086;25.634;2023-08-31T07:43:12;98407.72;;;25.74;57.92
58668;BME280;59852;43.086;25.634;2023-08-31T07:45:38;98410.34;;;25.88;59.52
58668;BME280;59852;43.086;25.634;2023-08-31T07:48:04;98421.50;;;26.16;56.07
58668;BME280;59852;43.086;25.634;2023-08-31T07:50:31;98433.47;;;26.14;56.76
58668;BME280;59852;43.086;25.634;2023-08-31T07:52:56;98439.94;;;26.38;55.10
58668;BME280;59852;43.086;25.634;2023-08-31T07:55:21;98442.03;;;26.29;55.77
58668;BME280;59852;43.086;25.634;2023-08-31T07:57:47;98436.91;;;26.21;56.33
58668;BME280;59852;43.086;25.634;2023-08-31T08:00:12;98437.13;;;25.88;56.86
58668;BME280;59852;43.086;25.634;2023-08-31T08:02:39;98451.81;;;25.79;56.63
58668;BME280;59852;43.086;25.634;2023-08-31T08:05:05;98448.34;;;26.10;55.20
58668;BME280;59852;43.086;25.634;2023-08-31T08:07:31;98444.50;;;25.99;54.96
58668;BME280;59852;43.086;25.634;2023-08-31T08:09:56;98439.38;;;26.54;52.66
58668;BME280;59852;43.086;25.634;2023-08-31T08:12:21;98442.50;;;26.76;51.32
58668;BME280;59852;43.086;25.634;2023-08-31T08:14:47;98451.06;;;26.66;52.39
58668;BME280;59852;43.086;25.634;2023-08-31T08:17:12;98448.44;;;27.03;52.85
58668;BME280;59852;43.086;25.634;2023-08-31T08:19:38;98454.09;;;26.70;51.10
58668;BME280;59852;43.086;25.634;2023-08-31T08:22:03;98453.66;;;26.16;52.07
58668;BME280;59852;43.086;25.634;2023-08-31T08:24:28;98455.75;;;25.69;52.91
58668;BME280;59852;43.086;25.634;2023-08-31T08:26:54;98461.09;;;25.76;53.39
58668;BME280;59852;43.086;25.634;2023-08-31T08:29:19;98454.31;;;25.73;53.17
58668;BME280;59852;43.086;25.634;2023-08-31T08:31:44;98450.03;;;25.53;53.69
58668;BME280;59852;43.086;25.634;2023-08-31T08:34:10;98446.09;;;25.55;52.71
58668;BME280;59852;43.086;25.634;2023-08-31T08:36:35;98445.19;;;25.30;51.22
58668;BME280;59852;43.086;25.634;2023-08-31T08:39:00;98443.34;;;25.30;52.72
58668;BME280;59852;43.086;25.634;2023-08-31T08:41:26;98446.59;;;25.39;51.53
58668;BME280;59852;43.086;25.634;2023-08-31T08:43:52;98455.25;;;25.41;52.48
58668;BME280;59852;43.086;25.634;2023-08-31T08:46:18;98440.66;;;25.37;52.74
58668;BME280;59852;43.086;25.634;2023-08-31T08:48:46;98449.06;;;25.40;53.25
58668;BME280;59852;43.086;25.634;2023-08-31T08:51:12;98453.63;;;25.27;52.35
58668;BME280;59852;43.086;25.634;2023-08-31T08:53:38;98454.03;;;25.37;52.27
58668;BME280;59852;43.086;25.634;2023-08-31T08:56:06;98454.84;;;25.37;51.89
58668;BME280;59852;43.086;25.634;2023-08-31T08:58:32;98442.16;;;25.06;52.13
58668;BME280;59852;43.086;25.634;2023-08-31T09:00:57;98460.88;;;24.93;53.14
58668;BME280;59852;43.086;25.634;2023-08-31T09:03:23;98462.31;;;25.15;52.87
58668;BME280;59852;43.086;25.634;2023-08-31T09:05:49;98457.56;;;25.24;53.49
58668;BME280;59852;43.086;25.634;2023-08-31T09:08:14;98458.75;;;25.41;51.37
58668;BME280;59852;43.086;25.634;2023-08-31T09:10:43;98466.56;;;25.43;51.13
58668;BME280;59852;43.086;25.634;2023-08-31T09:13:09;98459.69;;;25.60;50.88
58668;BME280;59852;43.086;25.634;2023-08-31T09:15:36;98463.59;;;26.09;49.85
58668;BME280;59852;43.086;25.634;2023-08-31T09:18:02;98465.47;;;26.40;49.47
58668;BME280;59852;43.086;25.634;2023-08-31T09:20:27;98470.25;;;26.31;48.90
58668;BME280;59852;43.086;25.634;2023-08-31T09:22:54;98464.16;;;26.74;47.82
58668;BME280;59852;43.086;25.634;2023-08-31T09:25:21;98460.00;;;26.78;46.20
58668;BME280;59852;43.086;25.634;2023-08-31T09:27:46;98466.19;;;26.54;47.10
58668;BME280;59852;43.086;25.634;2023-08-31T09:30:12;98462.91;;;26.52;47.95
58668;BME280;59852;43.086;25.634;2023-08-31T09:32:38;98465.00;;;26.75;46.21
58668;BME280;59852;43.086;25.634;2023-08-31T09:35:08;98468.81;;;26.36;48.02
58668;BME280;59852;43.086;25.634;2023-08-31T09:37:34;98472.84;;;26.76;47.40
58668;BME280;59852;43.086;25.634;2023-08-31T09:40:02;98459.88;;;26.92;48.42
58668;BME280;59852;43.086;25.634;2023-08-31T09:42:37;98461.19;;;25.94;49.85
58668;BME280;59852;43.086;25.634;2023-08-31T09:45:05;98460.69;;;26.11;49.70
58668;BME280;59852;43.086;25.634;2023-08-31T09:47:31;98455.66;;;25.96;49.43
58668;BME280;59852;43.086;25.634;2023-08-31T09:49:57;98451.94;;;26.28;49.35
58668;BME280;59852;43.086;25.634;2023-08-31T09:52:23;98453.69;;;26.91;48.59
58668;BME280;59852;43.086;25.634;2023-08-31T09:54:49;98462.06;;;27.01;48.28
58668;BME280;59852;43.086;25.634;2023-08-31T09:57:15;98462.63;;;27.10;48.24
58668;BME280;59852;43.086;25.634;2023-08-31T09:59:42;98463.47;;;27.29;47.19
58668;BME280;59852;43.086;25.634;2023-08-31T10:02:08;98470.84;;;27.52;46.84
58668;BME280;59852;43.086;25.634;2023-08-31T10:04:34;98470.47;;;27.30;47.07
58668;BME280;59852;43.086;25.634;2023-08-31T10:07:02;98467.50;;;27.38;47.02
58668;BME280;59852;43.086;25.634;2023-08-31T10:09:28;98466.41;;;27.94;45.45
58668;BME280;59852;43.086;25.634;2023-08-31T10:11:54;98468.88;;;28.25;44.76
58668;BME280;59852;43.086;25.634;2023-08-31T10:14:19;98455.94;;;27.56;45.56
58668;BME280;59852;43.086;25.634;2023-08-31T10:16:45;98460.56;;;27.30;46.90
58668;BME280;59852;43.086;25.634;2023-08-31T10:19:11;98456.28;;;27.41;47.25
58668;BME280;59852;43.086;25.634;2023-08-31T10:21:37;98460.31;;;27.13;47.15
58668;BME280;59852;43.086;25.634;2023-08-31T10:24:04;98456.53;;;27.21;46.21
58668;BME280;59852;43.086;25.634;2023-08-31T10:26:30;98454.56;;;27.83;46.88
58668;BME280;59852;43.086;25.634;2023-08-31T10:28:56;98462.91;;;28.23;46.34
58668;BME280;59852;43.086;25.634;2023-08-31T10:31:22;98461.25;;;27.92;45.20
58668;BME280;59852;43.086;25.634;2023-08-31T10:33:55;98464.31;;;27.66;44.87
58668;BME280;59852;43.086;25.634;2023-08-31T10:36:20;98453.66;;;27.53;45.24
58668;BME280;59852;43.086;25.634;2023-08-31T10:38:47;98461.66;;;27.04;46.30
58668;BME280;59852;43.086;25.634;2023-08-31T10:51:40;98457.41;;;26.47;47.82
58668;BME280;59852;43.086;25.634;2023-08-31T10:54:21;98468.97;;;26.41;49.05
58668;BME280;59852;43.086;25.634;2023-08-31T10:59:22;98486.44;;;26.18;50.26
58668;BME280;59852;43.086;25.634;2023-08-31T11:01:51;98485.19;;;25.83;50.38
58668;BME280;59852;43.086;25.634;2023-08-31T11:04:17;98490.72;;;25.88;52.67
58668;BME280;59852;43.086;25.634;2023-08-31T11:06:44;98494.53;;;25.60;53.91
58668;BME280;59852;43.086;25.634;2023-08-31T11:09:17;98516.16;;;25.59;56.77
58668;BME280;59852;43.086;25.634;2023-08-31T11:11:43;98522.22;;;25.14;57.60
58668;BME280;59852;43.086;25.634;2023-08-31T11:14:08;98516.66;;;25.16;56.53
58668;BME280;59852;43.086;25.634;2023-08-31T11:16:34;98518.75;;;25.07;55.66
58668;BME280;59852;43.086;25.634;2023-08-31T11:18:59;98518.94;;;25.06;57.85
58668;BME280;59852;43.086;25.634;2023-08-31T11:21:25;98510.75;;;24.07;60.98
58668;BME280;59852;43.086;25.634;2023-08-31T11:23:50;98498.88;;;24.16;62.92
58668;BME280;59852;43.086;25.634;2023-08-31T11:26:17;98502.84;;;24.46;63.10
58668;BME280;59852;43.086;25.634;2023-08-31T11:28:45;98500.88;;;24.07;63.02
58668;BME280;59852;43.086;25.634;2023-08-31T11:31:11;98505.53;;;24.46;62.15
58668;BME280;59852;43.086;25.634;2023-08-31T11:33:36;98506.75;;;24.57;60.84
58668;BME280;59852;43.086;25.634;2023-08-31T11:36:03;98515.75;;;24.23;63.27
58668;BME280;59852;43.086;25.634;2023-08-31T11:38:28;98512.25;;;23.68;65.58
58668;BME280;59852;43.086;25.634;2023-08-31T11:40:56;98519.38;;;24.02;63.18
58668;BME280;59852;43.086;25.634;2023-08-31T11:43:22;98516.59;;;24.30;62.86
58668;BME280;59852;43.086;25.634;2023-08-31T11:45:48;98516.22;;;24.46;61.95
58668;BME280;59852;43.086;25.634;2023-08-31T11:48:13;98509.66;;;24.55;62.55
58668;BME280;59852;43.086;25.634;2023-08-31T11:50:39;98518.28;;;24.64;63.96
58668;BME280;59852;43.086;25.634;2023-08-31T11:53:05;98514.38;;;24.53;62.72
58668;BME280;59852;43.086;25.634;2023-08-31T11:55:30;98515.44;;;24.72;63.09
58668;BME280;59852;43.086;25.634;2023-08-31T11:57:58;98516.66;;;24.50;60.38
58668;BME280;59852;43.086;25.634;2023-08-31T12:00:23;98507.53;;;24.24;60.29
58668;BME280;59852;43.086;25.634;2023-08-31T12:02:59;98502.47;;;24.49;60.33
58668;BME280;59852;43.086;25.634;2023-08-31T12:05:25;98486.38;;;24.96;59.66
58668;BME280;59852;43.086;25.634;2023-08-31T12:07:50;98476.72;;;25.14;58.71
58668;BME280;59852;43.086;25.634;2023-08-31T12:10:18;98474.25;;;25.13;58.84
58668;BME280;59852;43.086;25.634;2023-08-31T12:12:43;98475.72;;;25.02;58.78
58668;BME280;59852;43.086;25.634;2023-08-31T12:15:08;98478.59;;;25.07;59.22
58668;BME280;59852;43.086;25.634;2023-08-31T12:17:38;98483.31;;;24.85;59.57
58668;BME280;59852;43.086;25.634;2023-08-31T12:20:10;98490.53;;;24.92;60.37
58668;BME280;59852;43.086;25.634;2023-08-31T12:22:37;98488.41;;;25.40;58.43
58668;BME280;59852;43.086;25.634;2023-08-31T12:25:03;98481.41;;;25.32;58.96
58668;BME280;59852;43.086;25.634;2023-08-31T12:27:28;98489.84;;;25.42;56.41
58668;BME280;59852;43.086;25.634;2023-08-31T12:29:55;98489.16;;;25.67;56.99
58668;BME280;59852;43.086;25.634;2023-08-31T12:32:21;98481.69;;;25.76;56.42
58668;BME280;59852;43.086;25.634;2023-08-31T12:34:46;98469.91;;;25.90;56.35
58668;BME280;59852;43.086;25.634;2023-08-31T12:37:11;98473.25;;;25.65;55.16
58668;BME280;59852;43.086;25.634;2023-08-31T12:39:37;98473.25;;;25.65;56.03
58668;BME280;59852;43.086;25.634;2023-08-31T12:42:02;98472.59;;;26.21;54.70
58668;BME280;59852;43.086;25.634;2023-08-31T12:44:28;98466.44;;;26.14;54.87
58668;BME280;59852;43.086;25.634;2023-08-31T12:46:53;98457.78;;;26.94;54.69
58668;BME280;59852;43.086;25.634;2023-08-31T12:49:19;98451.31;;;26.58;53.54
58668;BME280;59852;43.086;25.634;2023-08-31T12:51:45;98448.28;;;26.73;52.66
58668;BME280;59852;43.086;25.634;2023-08-31T12:54:11;98445.03;;;26.46;54.87
58668;BME280;59852;43.086;25.634;2023-08-31T12:56:36;98441.72;;;26.69;53.75
58668;BME280;59852;43.086;25.634;2023-08-31T12:59:03;98432.28;;;26.35;53.41
58668;BME280;59852;43.086;25.634;2023-08-31T13:01:30;98433.13;;;26.35;52.96
58668;BME280;59852;43.086;25.634;2023-08-31T13:03:58;98431.69;;;26.33;53.11
58668;BME280;59852;43.086;25.634;2023-08-31T13:06:23;98429.41;;;26.61;53.77